^^

..:: Storico WU ::..




Lo storico viene creato da WUnderground con i dati che la stazione Meteomincio invia al loro server. L' aggiornamento viene fatto ogni 5 minuti circa, tuttavia possono esserci intervalli pi¨ ampi a causa di errori, interruzioni di servizio o problemi nell' invio tramite FTP.


Storico stazione MeteoMincio
Giorno Sommario per Giugno 26, 2022 Unità:  Inglese    Metrico   Entrambi
Giorno Settimana Mese Anno
  Max: Min: Media:
Temperatura: 93.7 °F 64.9 °F 80.6 °F
Dew Point: 72.5 °F 60.1 °F 65.7 °F
Umidità: 85% 40.3% 62%
Velocità vento: 6.8mph 0mph 3.3mph
Raffica: 12mph - -
Direzione- - ESE
Pressione: 30 in 29.9 in -
Precipitazioni: 0 in    
 
 
Tabulato Dati per Giugno 26, 2022
Ora Temperatura Dew Point Pressione Direzione Velocità vento Raffica Umidità Intensità pioggia (oraria) Info solare Situazione
00:04 73.2 °F 62.1 °F 29.9 in SSW 2.7 mph 4 mph 67.9% 0 in 0 W/m2
00:09 73.4 °F 61.9 °F 29.9 in SSW 3.1 mph 4 mph 67.3% 0 in 0 W/m2
00:14 73.8 °F 61.7 °F 29.9 in SW 3.3 mph 5 mph 66% 0 in 0 W/m2
00:19 73.9 °F 61.7 °F 29.9 in SW 3.4 mph 5 mph 66% 0 in 0 W/m2
00:24 73.8 °F 61.7 °F 29.9 in SSW 3.3 mph 5 mph 66% 0 in 0 W/m2
00:29 73.6 °F 61.7 °F 29.9 in SSW 2.7 mph 5 mph 66.3% 0 in 0 W/m2
00:34 73.2 °F 61.9 °F 29.9 in SW 1.7 mph 3.5 mph 67.5% 0 in 0 W/m2
00:39 72.9 °F 61.7 °F 29.9 in SW 0.9 mph 3 mph 68% 0 in 0 W/m2
00:44 72.7 °F 61.5 °F 29.9 in SW 0.6 mph 2 mph 68% 0 in 0 W/m2
00:49 72.3 °F 61.9 °F 29.9 in SW 0.4 mph 3.5 mph 69.6% 0 in 0 W/m2
00:54 72 °F 61.9 °F 29.9 in SW 1.6 mph 4 mph 70.5% 0 in 0 W/m2
00:59 71.6 °F 61.7 °F 29.9 in SW 2.5 mph 4 mph 71% 0 in 0 W/m2
01:04 71.4 °F 61.5 °F 29.9 in SW 1.9 mph 3.5 mph 71% 0 in 0 W/m2
01:09 71.4 °F 61.2 °F 29.9 in SW 1.8 mph 3.5 mph 70.3% 0 in 0 W/m2
01:14 71.2 °F 61 °F 29.9 in SW 1.8 mph 3.5 mph 70% 0 in 0 W/m2
01:19 71.1 °F 60.8 °F 29.9 in SW 1.9 mph 3.5 mph 70% 0 in 0 W/m2
01:24 71.1 °F 61 °F 29.9 in SW 1.7 mph 3.5 mph 70.5% 0 in 0 W/m2
01:29 71.1 °F 61.2 °F 29.9 in SW 1.4 mph 3 mph 71% 0 in 0 W/m2
01:34 70.9 °F 61 °F 29.9 in SW 1.6 mph 3.5 mph 71% 0 in 0 W/m2
01:39 70.5 °F 60.8 °F 29.9 in SW 1.9 mph 3.5 mph 71.5% 0 in 0 W/m2
01:44 70.3 °F 60.8 °F 29.9 in SW 1.9 mph 3.5 mph 72% 0 in 0 W/m2
01:49 70.5 °F 60.8 °F 29.9 in SW 1.6 mph 3.5 mph 71.5% 0 in 0 W/m2
01:54 70.5 °F 60.8 °F 29.9 in SW 1.2 mph 3.5 mph 71.4% 0 in 0 W/m2
01:59 70.7 °F 60.8 °F 29.9 in SW 0.9 mph 3 mph 71% 0 in 0 W/m2
02:04 70.5 °F 60.8 °F 29.9 in SW 0.7 mph 2.3 mph 71.8% 0 in 0 W/m2
02:09 70.2 °F 60.6 °F 29.9 in SW 0.1 mph 2 mph 71.7% 0 in 0 W/m2
02:13 70 °F 60.6 °F 29.9 in Calm   1 mph 72.3% 0 in 0 W/m2
02:17 69.8 °F 60.6 °F 29.9 in Calm     73% 0 in 0 W/m2
02:24 69.6 °F 60.6 °F 29.9 in Calm     73.5% 0 in 0 W/m2
02:29 68.7 °F 60.6 °F 29.9 in SSW 0.3 mph 3.5 mph 75.6% 0 in 0 W/m2
02:34 68.7 °F 60.8 °F 29.9 in SSW 1.4 mph 4 mph 76% 0 in 0 W/m2
02:39 68.7 °F 60.6 °F 29.9 in SW 1.9 mph 4 mph 75.1% 0 in 0 W/m2
02:43 68.7 °F 60.3 °F 29.9 in SW 1.7 mph 4 mph 74% 0 in 0 W/m2
02:49 68.5 °F 60.4 °F 29.9 in SW 2 mph 4 mph 75.4% 0 in 0 W/m2
02:54 68.4 °F 60.4 °F 29.9 in SW 2.2 mph 3.5 mph 76% 0 in 0 W/m2
02:59 68.2 °F 60.3 °F 29.9 in SW 1.4 mph 3.5 mph 76% 0 in 0 W/m2
03:04 68 °F 60.3 °F 29.9 in WSW 2 mph 3.5 mph 76% 0 in 0 W/m2
03:09 68 °F 60.3 °F 29.9 in WSW 2.3 mph 3.5 mph 76% 0 in 0 W/m2
03:14 68 °F 60.1 °F 29.9 in West 1.4 mph 3.5 mph 76% 0 in 0 W/m2
03:19 68.2 °F 60.3 °F 29.9 in West 0.6 mph 3 mph 76% 0 in 0 W/m2
03:24 68.2 °F 60.4 °F 29.9 in WSW 0.7 mph 2.3 mph 76.4% 0 in 0 W/m2
03:28 67.8 °F 60.4 °F 29.9 in SW 1 mph 2.3 mph 77% 0 in 0 W/m2
03:33 67.8 °F 60.4 °F 29.9 in SW 1 mph 2.3 mph 77% 0 in 0 W/m2
03:39 67.1 °F 60.4 °F 29.9 in WSW 1.5 mph 3.5 mph 79.2% 0 in 0 W/m2
03:44 66.7 °F 60.4 °F 29.9 in WSW 2 mph 3.5 mph 80% 0 in 0 W/m2
03:49 66.6 °F 60.6 °F 29.9 in WSW 2.2 mph 3.5 mph 80.9% 0 in 0 W/m2
03:52 66.6 °F 60.6 °F 29.9 in WSW 2.2 mph 3.5 mph 80.9% 0 in 0 W/m2
03:57 66.4 °F 60.6 °F 29.9 in West 2.3 mph 3.5 mph 81.9% 0 in 0 W/m2
04:03 66.9 °F 60.8 °F 29.9 in WNW 2 mph 3.5 mph 81% 0 in 0 W/m2
04:09 66.9 °F 61 °F 29.9 in NW 1.5 mph 3.5 mph 81% 0 in 0 W/m2
04:13 67.1 °F 61 °F 29.9 in NW 0.6 mph 3.5 mph 81% 0 in 0 W/m2
04:17 67.1 °F 61.2 °F 29.9 in NW 0.1 mph 2.3 mph 81% 0 in 0 W/m2
04:24 67.1 °F 61 °F 29.9 in Calm     81% 0 in 0 W/m2
04:28 66.9 °F 61 °F 29.9 in Calm     81.4% 0 in 0 W/m2
04:34 66.9 °F 61.2 °F 29.9 in Calm     82% 0 in 0 W/m2
04:38 66.9 °F 61.2 °F 29.9 in Calm   2 mph 82% 0 in 0 W/m2
04:44 66.9 °F 61.2 °F 29.9 in Calm     82% 0 in 0 W/m2
04:48 66.7 °F 61.2 °F 29.9 in Calm     82% 0 in 0 W/m2
04:54 66.6 °F 61 °F 29.9 in Calm     82.3% 0 in 0 W/m2
04:58 66 °F 60.8 °F 29.9 in ENE 0.1 mph 2 mph 83% 0 in 0 W/m2
05:02 65.5 °F 60.3 °F 29.9 in ENE 0.7 mph 2.3 mph 83% 0 in 0 W/m2
05:07 65.5 °F 60.3 °F 29.9 in ENE 0.8 mph 2 mph 83% 0 in 0 W/m2
05:14 64.9 °F 60.1 °F 29.9 in East 0.7 mph 2.3 mph 84.5% 0 in 0 W/m2
05:19 64.9 °F 60.3 °F 29.9 in ENE 0.9 mph 2.3 mph 84.9% 0 in 0 W/m2
05:24 65.1 °F 60.4 °F 29.9 in ENE 0.8 mph 2.3 mph 85% 0 in 0 W/m2
05:29 64.9 °F 60.4 °F 29.9 in ENE 0.9 mph 2.3 mph 85% 0 in 0 W/m2
05:34 65.1 °F 60.4 °F 29.9 in ENE 0.7 mph 2.3 mph 85% 0 in 0 W/m2
05:39 65.5 °F 60.8 °F 29.9 in ENE 0.2 mph 2 mph 84.8% 0 in 5 W/m2
05:44 65.5 °F 60.8 °F 29.9 in Calm   1.2 mph 84.4% 0 in 7 W/m2
05:49 65.7 °F 61 °F 29.9 in North 0.2 mph 2.3 mph 84.9% 0 in 11 W/m2
05:54 66 °F 61.2 °F 29.9 in NNE 1.2 mph 2.3 mph 84.3% 0 in 12 W/m2
05:59 66.4 °F 61.2 °F 29.9 in NNE 1.3 mph 2.3 mph 83.3% 0 in 16 W/m2
06:04 66.6 °F 61.2 °F 29.9 in NNE 0.8 mph 2.3 mph 83% 0 in 18 W/m2
06:09 66.4 °F 61.2 °F 29.9 in NNE 0.9 mph 3.5 mph 83% 0 in 19 W/m2
06:14 66.4 °F 61.3 °F 29.9 in NE 1.3 mph 3.5 mph 84% 0 in 21 W/m2
06:19 66.6 °F 61.7 °F 29.9 in NNE 1.4 mph 3.5 mph 84% 0 in 25 W/m2
06:24 66.7 °F 61.7 °F 29.9 in NNE 1.4 mph 3.5 mph 84% 0 in 25 W/m2
06:29 67.5 °F 62.2 °F 29.9 in NNE 1.5 mph 3.5 mph 83.3% 0 in 37 W/m2
06:34 68 °F 62.6 °F 29.9 in NNE 1.5 mph 3.5 mph 83% 0 in 46 W/m2
06:39 68.5 °F 63 °F 29.9 in NNE 1.9 mph 3.5 mph 82.5% 0 in 54 W/m2
06:44 69.3 °F 63.1 °F 29.9 in NNE 1.7 mph 3.5 mph 80.6% 0 in 63 W/m2
06:49 69.8 °F 63.1 °F 29.9 in NE 1.2 mph 3.5 mph 79.4% 0 in 72 W/m2
06:54 70.2 °F 63 °F 29.9 in NE 1.6 mph 3.5 mph 78.4% 0 in 84 W/m2
06:59 70.3 °F 63.1 °F 29.9 in NE 2.2 mph 4 mph 78% 0 in 97 W/m2
07:04 70.7 °F 63.5 °F 29.9 in NE 3.1 mph 5 mph 78% 0 in 109 W/m2
07:09 71.1 °F 64 °F 29.9 in NE 3.2 mph 5 mph 78% 0 in 121 W/m2
07:13 71.4 °F 63.9 °F 29.9 in NE 3.6 mph 5 mph 77% 0 in 130 W/m2
07:19 71.8 °F 63.9 °F 29.9 in NE 3.7 mph 5 mph 76% 0 in 144 W/m2
07:24 72.1 °F 64.4 °F 29.9 in NE 3.9 mph 5 mph 76.6% 0 in 163 W/m2
07:29 72.5 °F 64.9 °F 29.9 in NE 3.5 mph 5 mph 77% 0 in 190 W/m2
07:34 72.9 °F 64.9 °F 29.9 in NE 2.8 mph 5 mph 76.4% 0 in 193 W/m2
07:39 73.2 °F 65.1 °F 29.9 in NE 3 mph 5 mph 75.6% 0 in 193 W/m2
07:44 73.2 °F 64.9 °F 30 in NE 2.5 mph 5 mph 75.4% 0 in 206 W/m2
07:49 73.6 °F 65.5 °F 30 in ENE 2.5 mph 6 mph 76% 0 in 223 W/m2
07:54 74.1 °F 66.2 °F 30 in ENE 3.4 mph 6 mph 76.4% 0 in 237 W/m2
07:59 74.5 °F 66.4 °F 30 in ESE 3.2 mph 5.8 mph 76% 0 in 257 W/m2
08:04 74.8 °F 66.7 °F 30 in ENE 3.6 mph 8.1 mph 76% 0 in 276 W/m2
08:09 75.2 °F 67.3 °F 30 in NE 4.8 mph 8.1 mph 76.2% 0 in 304 W/m2
08:14 75.6 °F 67.5 °F 30 in East 4.8 mph 8.1 mph 76% 0 in 315 W/m2
08:19 75.9 °F 68 °F 30 in East 4.5 mph 8 mph 76.8% 0 in 320 W/m2
08:24 76.1 °F 68.4 °F 30 in ENE 4.7 mph 9.2 mph 76.8% 0 in 334 W/m2
08:29 76.6 °F 68.9 °F 30 in NE 5.6 mph 9.2 mph 77% 0 in 341 W/m2
08:34 77.2 °F 69.3 °F 30 in ENE 5.5 mph 9 mph 76.6% 0 in 343 W/m2
08:39 77.5 °F 69.4 °F 30 in ENE 5.5 mph 9.2 mph 76.4% 0 in 359 W/m2
08:44 78.1 °F 70 °F 30 in ENE 6.4 mph 9.2 mph 76.3% 0 in 369 W/m2
08:49 78.4 °F 70 °F 30 in ENE 5.6 mph 9 mph 75.4% 0 in 380 W/m2
08:54 78.4 °F 69.8 °F 30 in ENE 5.5 mph 9.2 mph 75% 0 in 394 W/m2
08:59 78.6 °F 70 °F 30 in ENE 5.4 mph 10.4 mph 75% 0 in 408 W/m2
09:04 79 °F 70.7 °F 30 in East 5.6 mph 10.4 mph 75.9% 0 in 417 W/m2
09:09 79.3 °F 70.7 °F 30 in ENE 4.5 mph 10.4 mph 74.8% 0 in 431 W/m2
09:14 79.5 °F 70.5 °F 30 in ENE 6.2 mph 11.5 mph 74% 0 in 445 W/m2
09:19 79.9 °F 70.9 °F 30 in ENE 6 mph 12 mph 74.4% 0 in 455 W/m2
09:24 80.2 °F 70.9 °F 30 in ENE 5 mph 12 mph 73.3% 0 in 468 W/m2
09:29 80.4 °F 71.1 °F 30 in East 6.3 mph 12 mph 73.5% 0 in 489 W/m2
09:34 80.4 °F 71.2 °F 30 in East 6.5 mph 12 mph 73.7% 0 in 501 W/m2
09:39 80.4 °F 71.1 °F 30 in ESE 6.2 mph 9.2 mph 73% 0 in 508 W/m2
09:44 80.6 °F 71.1 °F 30 in East 6.1 mph 10.4 mph 72.7% 0 in 517 W/m2
09:49 81 °F 71.1 °F 30 in ENE 6.3 mph 10.4 mph 72% 0 in 534 W/m2
09:54 81.5 °F 71.4 °F 30 in ENE 5.8 mph 10.4 mph 71.8% 0 in 548 W/m2
09:59 81.9 °F 71.8 °F 30 in East 4.8 mph 10 mph 71.8% 0 in 564 W/m2
10:04 81.5 °F 71.4 °F 30 in ESE 6 mph 10.4 mph 71.6% 0 in 580 W/m2
10:09 81.7 °F 71.4 °F 30 in ESE 5 mph 11 mph 71.1% 0 in 589 W/m2
10:14 81.9 °F 71.4 °F 30 in ESE 6 mph 12 mph 70.6% 0 in 599 W/m2
10:19 82.2 °F 71.2 °F 30 in East 6.5 mph 12 mph 69.3% 0 in 617 W/m2
10:24 82.4 °F 71.4 °F 30 in ESE 6.6 mph 9 mph 69.6% 0 in 615 W/m2
10:29 82.8 °F 71.6 °F 30 in East 5.7 mph 9 mph 69.2% 0 in 619 W/m2
10:30 83.3 °F 72.5 °F 30 in ENE 4.5 mph 8.1 mph 70% 0 in 619 W/m2
10:39 83.7 °F 71.8 °F 30 in East 4.1 mph 9 mph 67.9% 0 in 661 W/m2
10:44 83.5 °F 71.4 °F 30 in ESE 5 mph 9.2 mph 67% 0 in 661 W/m2
10:49 83.3 °F 71.1 °F 30 in ESE 5.7 mph 10.4 mph 66.7% 0 in 679 W/m2
10:54 83.3 °F 70.9 °F 30 in East 6 mph 10.4 mph 66% 0 in 689 W/m2
10:59 83.7 °F 71.1 °F 30 in East 6.8 mph 10 mph 66% 0 in 701 W/m2
11:04 83.7 °F 70.3 °F 30 in East 3.8 mph 9.2 mph 64.4% 0 in 703 W/m2
11:09 84 °F 70.3 °F 30 in ESE 3.4 mph 9.2 mph 63.8% 0 in 712 W/m2
11:14 84.6 °F 70.7 °F 30 in East 5.5 mph 9.2 mph 63.3% 0 in 721 W/m2
11:19 84.7 °F 70.5 °F 30 in East 5.2 mph 9.2 mph 62.7% 0 in 729 W/m2
11:24 85.1 °F 71.2 °F 30 in ESE 3.8 mph 11 mph 63.1% 0 in 737 W/m2
11:29 85.3 °F 71.2 °F 30 in East 5.5 mph 11 mph 62.9% 0 in 749 W/m2
11:34 85.6 °F 70.3 °F 30 in East 6.2 mph 10 mph 60.7% 0 in 761 W/m2
11:39 85.3 °F 69.8 °F 30 in ESE 5.5 mph 9.2 mph 60.1% 0 in 766 W/m2
11:44 85.3 °F 70.2 °F 30 in East 4.9 mph 9.2 mph 60.8% 0 in 772 W/m2
11:49 85.6 °F 70.5 °F 30 in East 6 mph 9.2 mph 60.7% 0 in 779 W/m2
11:54 85.8 °F 70.7 °F 30 in East 6.6 mph 9.2 mph 60.8% 0 in 784 W/m2
11:59 86.2 °F 70.9 °F 30 in ENE 4.4 mph 9.2 mph 60.7% 0 in 791 W/m2
12:04 86.7 °F 70.3 °F 30 in ESE 6.2 mph 9.2 mph 58.4% 0 in 795 W/m2
12:09 86.7 °F 70.3 °F 30 in ENE 6.6 mph 9.2 mph 58.1% 0 in 803 W/m2
12:14 87.1 °F 70.5 °F 30 in NE 4.7 mph 8.1 mph 57.8% 0 in 805 W/m2
12:19 87.1 °F 70.2 °F 30 in ESE 3.5 mph 8.1 mph 57.3% 0 in 810 W/m2
12:24 87.1 °F 70 °F 30 in East 4.4 mph 8.1 mph 56.9% 0 in 819 W/m2
12:29 88 °F 70.5 °F 29.9 in ENE 3.9 mph 8.1 mph 56.2% 0 in 821 W/m2
12:34 88 °F 70.7 °F 29.9 in ENE 4.1 mph 8.1 mph 56.5% 0 in 826 W/m2
12:39 87.4 °F 70.7 °F 29.9 in ENE 4.7 mph 8.1 mph 57.8% 0 in 828 W/m2
12:44 88 °F 70.3 °F 29.9 in ENE 2.6 mph 8 mph 56% 0 in 833 W/m2
12:49 89.1 °F 70.7 °F 29.9 in NNE 3.8 mph 7 mph 54.8% 0 in 837 W/m2
12:54 89.4 °F 69.6 °F 29.9 in NE 4.5 mph 9.2 mph 52.4% 0 in 842 W/m2
12:59 88.9 °F 68.9 °F 29.9 in NE 4.2 mph 9.2 mph 51.8% 0 in 847 W/m2
13:04 89.4 °F 67.8 °F 29.9 in NNE 3.8 mph 9.2 mph 49.2% 0 in 849 W/m2
13:09 89.2 °F 66.6 °F 29.9 in NE 4.2 mph 8 mph 47.3% 0 in 853 W/m2
13:14 88.9 °F 66.4 °F 29.9 in ENE 4.4 mph 7 mph 47.7% 0 in 854 W/m2
13:17 88.3 °F 65.7 °F 29.9 in ESE 4.7 mph 7 mph 47% 0 in 854 W/m2
13:21 89.6 °F 66.7 °F 29.9 in ESE 4.1 mph 7 mph 47% 0 in 856 W/m2
13:29 89.8 °F 65.8 °F 29.9 in ENE 3.5 mph 7 mph 45.5% 0 in 858 W/m2
13:34 90.3 °F 65.1 °F 29.9 in North 2.1 mph 7 mph 43.7% 0 in 856 W/m2
13:39 90.1 °F 65.3 °F 29.9 in WNW 1.4 mph 3.5 mph 44.3% 0 in 856 W/m2
13:44 89.6 °F 66.2 °F 29.9 in SE 2.5 mph 9.2 mph 46.1% 0 in 853 W/m2
13:49 89.4 °F 67.1 °F 29.9 in South 4.3 mph 9.2 mph 47.9% 0 in 849 W/m2
13:54 89.8 °F 67.6 °F 29.9 in ESE 4 mph 9.2 mph 48.2% 0 in 847 W/m2
13:59 90.3 °F 67.5 °F 29.9 in ENE 3.7 mph 9 mph 47.1% 0 in 846 W/m2
14:04 90.3 °F 66.9 °F 29.9 in ESE 4.7 mph 7 mph 46.4% 0 in 846 W/m2
14:09 90.1 °F 67.5 °F 29.9 in NE 4.3 mph 7 mph 47.4% 0 in 840 W/m2
14:14 90 °F 68 °F 29.9 in East 3.6 mph 6 mph 48.7% 0 in 838 W/m2
14:19 90.5 °F 67.1 °F 29.9 in ENE 4.1 mph 7 mph 46.6% 0 in 835 W/m2
14:24 90.5 °F 68.2 °F 29.9 in NNW 4 mph 7 mph 48.2% 0 in 833 W/m2
14:28 91 °F 68.7 °F 29.9 in North 2.1 mph 7 mph 48.1% 0 in 833 W/m2
14:34 91.6 °F 68.9 °F 29.9 in NE 2.9 mph 7 mph 47.6% 0 in 828 W/m2
14:39 91.2 °F 68 °F 29.9 in SE 5 mph 7 mph 46.7% 0 in 817 W/m2
14:44 90.5 °F 67.8 °F 29.9 in ESE 4.5 mph 7 mph 47.5% 0 in 816 W/m2
14:49 90.9 °F 68.2 °F 29.9 in East 3.4 mph 7 mph 47.5% 0 in 812 W/m2
14:54 91.8 °F 68.9 °F 29.9 in ENE 3.4 mph 7 mph 47.4% 0 in 810 W/m2
14:59 91.4 °F 68.9 °F 29.9 in ENE 4.4 mph 7 mph 48% 0 in 803 W/m2
15:04 92.1 °F 69.6 °F 29.9 in NNE 5 mph 8.1 mph 48% 0 in 802 W/m2
15:09 91.8 °F 68.9 °F 29.9 in East 4.7 mph 8.1 mph 47.4% 0 in 788 W/m2
15:14 92.1 °F 69.8 °F 29.9 in NNE 3.3 mph 8.1 mph 48.5% 0 in 782 W/m2
15:19 92.5 °F 69.3 °F 29.9 in NE 3 mph 10 mph 47.1% 0 in 777 W/m2
15:24 92.1 °F 69.1 °F 29.9 in NE 3.4 mph 10.4 mph 47.1% 0 in 772 W/m2
15:29 91.9 °F 68.9 °F 29.9 in NNE 2.9 mph 10.4 mph 47% 0 in 759 W/m2
15:34 92.1 °F 68.9 °F 29.9 in NNE 3.5 mph 7 mph 46.9% 0 in 752 W/m2
15:39 92.5 °F 68.9 °F 29.9 in ENE 5.1 mph 9.2 mph 46.2% 0 in 752 W/m2
15:44 92.3 °F 67.1 °F 29.9 in ENE 6.4 mph 9.2 mph 43.8% 0 in 738 W/m2
15:49 92.1 °F 67.3 °F 29.9 in ENE 4.4 mph 9.2 mph 44.2% 0 in 728 W/m2
15:54 92.5 °F 68.2 °F 29.9 in ENE 4.2 mph 9 mph 45.2% 0 in 715 W/m2
15:59 92.7 °F 68.2 °F 29.9 in ENE 4.9 mph 8.1 mph 44.9% 0 in 708 W/m2
16:04 92.8 °F 68 °F 29.9 in ENE 4.2 mph 8.1 mph 44.5% 0 in 703 W/m2
16:09 93 °F 67.3 °F 29.9 in ENE 4 mph 9 mph 43.3% 0 in 696 W/m2
16:14 93.2 °F 66.7 °F 29.9 in East 5.3 mph 9.2 mph 42.1% 0 in 687 W/m2
16:19 92.7 °F 65.8 °F 29.9 in East 6.8 mph 9.2 mph 41.5% 0 in 679 W/m2
16:24 92.3 °F 66 °F 29.9 in ENE 5.8 mph 9.2 mph 42% 0 in 664 W/m2
16:29 92.5 °F 66.4 °F 29.9 in ESE 4.7 mph 9 mph 42.4% 0 in 654 W/m2
16:34 92.7 °F 66 °F 29.9 in ENE 3.5 mph 9 mph 41.7% 0 in 643 W/m2
16:39 92.8 °F 67.3 °F 29.9 in NNE 2.5 mph 8 mph 43.3% 0 in 631 W/m2
16:44 93.4 °F 68.4 °F 29.9 in NNE 3.9 mph 5 mph 44.1% 0 in 621 W/m2
16:49 93.7 °F 67.6 °F 29.9 in NE 4.2 mph 6.9 mph 42.8% 0 in 608 W/m2
16:54 93.4 °F 66.4 °F 29.9 in East 4.5 mph 7 mph 41.2% 0 in 598 W/m2
16:59 93 °F 66 °F 29.9 in East 4.7 mph 7 mph 41.2% 0 in 592 W/m2
17:04 93 °F 65.3 °F 29.9 in ENE 3.8 mph 8.1 mph 40.3% 0 in 596 W/m2
17:09 92.8 °F 65.3 °F 29.9 in ESE 5 mph 8.1 mph 40.5% 0 in 585 W/m2
17:14 93 °F 65.5 °F 29.9 in ESE 4.7 mph 8.1 mph 40.4% 0 in 557 W/m2
17:19 92.8 °F 65.7 °F 29.9 in ESE 3.5 mph 8 mph 41% 0 in 541 W/m2
17:24 92.8 °F 65.7 °F 29.9 in NE 4 mph 8.1 mph 41% 0 in 524 W/m2
17:29 92.8 °F 65.5 °F 29.9 in NE 4.8 mph 8.1 mph 40.8% 0 in 513 W/m2
17:34 92.5 °F 65.1 °F 29.9 in NE 3.7 mph 8 mph 40.6% 0 in 501 W/m2
17:38 92.8 °F 65.7 °F 29.9 in NE 1.4 mph 7 mph 40.8% 0 in 490 W/m2
17:44 93.2 °F 66.4 °F 29.9 in NE 2.4 mph 8 mph 41.5% 0 in 471 W/m2
17:49 93.2 °F 66.4 °F 29.9 in East 3.2 mph 7 mph 41.6% 0 in 475 W/m2
17:54 92.5 °F 66.6 °F 29.9 in ENE 1.8 mph 7 mph 42.7% 0 in 469 W/m2
17:59 92.3 °F 66.4 °F 29.9 in NE 3.1 mph 5 mph 42.7% 0 in 466 W/m2
18:04 91.6 °F 66.6 °F 29.9 in NE 3 mph 5 mph 44% 0 in 401 W/m2
18:09 91.8 °F 66.7 °F 29.9 in NNE 2.4 mph 5 mph 44% 0 in 476 W/m2
18:14 92.5 °F 67.1 °F 29.9 in NNE 1.9 mph 3.5 mph 43.7% 0 in 480 W/m2
18:19 92.8 °F 66.9 °F 29.9 in ENE 1.2 mph 4 mph 43% 0 in 468 W/m2
18:24 92.3 °F 66.7 °F 29.9 in NE 2.2 mph 5 mph 43% 0 in 390 W/m2
18:29 91.9 °F 66.2 °F 29.9 in East 2.9 mph 5 mph 43.1% 0 in 162 W/m2
18:33 91.4 °F 65.5 °F 29.9 in ENE 2.1 mph 5 mph 42.6% 0 in 162 W/m2
18:37 91.2 °F 66.2 °F 29.9 in ENE 2.2 mph 5 mph 44% 0 in 149 W/m2
18:44 91.2 °F 67.3 °F 29.9 in NE 2.3 mph 5 mph 45.7% 0 in 158 W/m2
18:49 91 °F 66.7 °F 29.9 in NE 2.8 mph 5 mph 45% 0 in 123 W/m2
18:54 91 °F 67.1 °F 29.9 in NE 3 mph 5 mph 45.7% 0 in 93 W/m2
18:59 90.9 °F 67.1 °F 29.9 in NE 3 mph 4 mph 45.8% 0 in 86 W/m2
19:04 90.5 °F 68.4 °F 29.9 in NNE 3.2 mph 4 mph 48.2% 0 in 98 W/m2
19:09 90.3 °F 68.7 °F 29.9 in NNE 3 mph 5 mph 49.3% 0 in 98 W/m2
19:12 90.1 °F 68.5 °F 29.9 in North 3.1 mph 5 mph 49% 0 in 97 W/m2
19:19 90.1 °F 68.4 °F 29.9 in NE 3.5 mph 5 mph 49% 0 in 102 W/m2
19:24 90.1 °F 68.4 °F 29.9 in ENE 3.7 mph 5 mph 49% 0 in 86 W/m2
19:29 89.8 °F 68.7 °F 29.9 in NE 3.9 mph 5 mph 50% 0 in 67 W/m2
19:34 89.4 °F 68.4 °F 29.9 in NE 3.8 mph 5 mph 50% 0 in 74 W/m2
19:39 89.2 °F 68.5 °F 29.9 in ENE 3.8 mph 5 mph 50.6% 0 in 104 W/m2
19:44 89.2 °F 69.6 °F 29.9 in ENE 3.2 mph 5 mph 52.6% 0 in 123 W/m2
19:49 88.9 °F 70.7 °F 29.9 in ENE 2.7 mph 5 mph 55.2% 0 in 69 W/m2
19:54 88.5 °F 70.5 °F 29.9 in ENE 3 mph 4 mph 55.5% 0 in 58 W/m2
19:59 88.2 °F 70.2 °F 29.9 in ENE 3.1 mph 5 mph 55.5% 0 in 58 W/m2
20:04 88.2 °F 69.3 °F 29.9 in ENE 3.4 mph 5 mph 53.9% 0 in 54 W/m2
20:09 88 °F 69.3 °F 29.9 in ENE 3.7 mph 6 mph 53.9% 0 in 42 W/m2
20:14 87.6 °F 69.6 °F 29.9 in ENE 3.9 mph 6 mph 55.3% 0 in 37 W/m2
20:19 87.1 °F 69.4 °F 29.9 in East 3.5 mph 6 mph 56% 0 in 32 W/m2
20:24 86.7 °F 69.4 °F 29.9 in East 3.7 mph 7 mph 56.5% 0 in 23 W/m2
20:29 86 °F 68.7 °F 29.9 in ESE 4.7 mph 7 mph 56.2% 0 in 21 W/m2
20:34 86 °F 68 °F 29.9 in ESE 4.7 mph 7 mph 55% 0 in 18 W/m2
20:39 85.8 °F 67.3 °F 29.9 in East 3.9 mph 7 mph 54.4% 0 in 14 W/m2
20:44 85.5 °F 67.1 °F 29.9 in ESE 5 mph 8.1 mph 54.4% 0 in 12 W/m2
20:48 85.1 °F 66.9 °F 29.9 in ESE 5.6 mph 8.1 mph 54.7% 0 in 9 W/m2
20:54 84.9 °F 66.9 °F 29.9 in ESE 4.5 mph 8 mph 55% 0 in 5 W/m2
20:59 84.6 °F 66.7 °F 29.9 in East 3.7 mph 7 mph 55% 0 in 0 W/m2
21:04 84.4 °F 66.6 °F 29.9 in ESE 4.2 mph 5 mph 55.3% 0 in 0 W/m2
21:09 84.2 °F 66.4 °F 29.9 in ESE 3.7 mph 10 mph 55.4% 0 in 0 W/m2
21:14 84 °F 66.6 °F 29.9 in East 5 mph 10.4 mph 56% 0 in 0 W/m2
21:19 83.7 °F 66.4 °F 29.9 in East 5.6 mph 10.4 mph 56% 0 in 0 W/m2
21:24 83.5 °F 66.2 °F 29.9 in ESE 4.2 mph 10 mph 56% 0 in 0 W/m2
21:29 83.1 °F 66 °F 29.9 in ESE 3.3 mph 7 mph 56.2% 0 in 0 W/m2
21:34 82.9 °F 65.5 °F 29.9 in SE 3 mph 7 mph 55.6% 0 in 0 W/m2
21:39 82.9 °F 64.2 °F 29.9 in ESE 4.3 mph 10.4 mph 53.1% 0 in 0 W/m2
21:44 83.1 °F 63.5 °F 29.9 in SE 5.8 mph 10.4 mph 51.6% 0 in 0 W/m2
21:49 83.1 °F 63 °F 29.9 in SE 5.2 mph 10.4 mph 50.6% 0 in 0 W/m2
21:54 83.1 °F 62.4 °F 29.9 in SE 4.2 mph 7 mph 50% 0 in 0 W/m2
21:59 82.9 °F 62.2 °F 29.9 in ESE 4 mph 7 mph 50% 0 in 0 W/m2
22:04 82.6 °F 62.2 °F 29.9 in East 3.2 mph 7 mph 50.5% 0 in 0 W/m2
22:09 82.2 °F 62.2 °F 29.9 in ESE 3.8 mph 7 mph 51% 0 in 0 W/m2
22:14 81.9 °F 62.4 °F 29.9 in ESE 3.5 mph 7 mph 52% 0 in 0 W/m2
22:19 81.5 °F 62.4 °F 29.9 in ESE 3 mph 5 mph 52.4% 0 in 0 W/m2
22:24 81.3 °F 62.1 °F 29.9 in ESE 2.9 mph 7 mph 52% 0 in 0 W/m2
22:29 81.3 °F 62.1 °F 29.9 in East 3.9 mph 7 mph 52% 0 in 0 W/m2
22:34 81.1 °F 61.9 °F 29.9 in ESE 4 mph 9 mph 52% 0 in 0 W/m2
22:39 81 °F 62.1 °F 29.9 in ESE 3.5 mph 9 mph 52.6% 0 in 0 W/m2
22:44 80.6 °F 62.1 °F 29.9 in East 2.3 mph 7 mph 53.3% 0 in 0 W/m2
22:49 80.2 °F 62.1 °F 29.9 in East 2.1 mph 5 mph 54% 0 in 0 W/m2
22:54 80.2 °F 62.1 °F 29.9 in ESE 2.5 mph 5 mph 54% 0 in 0 W/m2
22:59 79.9 °F 62.2 °F 29.9 in East 2.6 mph 5 mph 54.9% 0 in 0 W/m2
23:04 79.7 °F 62.6 °F 29.9 in East 2.8 mph 5 mph 55.9% 0 in 0 W/m2
23:09 79.5 °F 62.4 °F 29.9 in East 2.9 mph 6 mph 56% 0 in 0 W/m2
23:14 79.3 °F 62.2 °F 29.9 in East 3.2 mph 6 mph 56% 0 in 0 W/m2
23:18 79 °F 62.4 °F 29.9 in ESE 3.4 mph 6 mph 56.6% 0 in 0 W/m2
23:24 79 °F 62.4 °F 29.9 in East 3.7 mph 6 mph 57% 0 in 0 W/m2
23:29 79 °F 62.4 °F 29.9 in ENE 3.7 mph 5.8 mph 57% 0 in 0 W/m2
23:34 78.8 °F 62.4 °F 29.9 in ENE 3.7 mph 6 mph 57% 0 in 0 W/m2
23:38 78.8 °F 62.4 °F 29.9 in East 3.5 mph 6 mph 57.3% 0 in 0 W/m2
23:44 78.6 °F 62.8 °F 29.9 in ENE 3 mph 5 mph 58% 0 in 0 W/m2
23:49 78.6 °F 62.8 °F 29.9 in ENE 3.4 mph 8.1 mph 58% 0 in 0 W/m2
23:54 78.6 °F 62.8 °F 29.9 in NE 4.2 mph 8.1 mph 58.4% 0 in 0 W/m2
23:59 78.4 °F 63 °F 29.9 in ENE 4.5 mph 8.1 mph 59.2% 0 in 0 W/m2
Stazione Meteorologica MeteoMincio Rivalta s/M (MN)
Con i complimenti di Weather Underground - 4 mb


METEO PILLOLE
Temperatura più bassa in montagna in Italia
Busa Fradusta (2.606m) Pale di San Martino - Trento
-48.3°C il 27 Dicembre 2010.

Do NOT follow this link or you will be banned from the site!